Time;durP1;ratioP1;P1;durP2;ratioP2;P2;SDS_P1;SDS_P2;PMS_P1;PMS_P2;Temp;Humidity;BMP_temperature;BMP_pressure;BME280_temperature;BME280_humidity;BME280_pressure;Samples;Min_cycle;Max_cycle;Signal;HPM_P1;HPM_P2
2022/03/21 00:00:22;;;;;;;41.65;22.35;;;4.70;96.10;;;;;;5068943;28;20234;-53
2022/03/21 00:02:49;;;;;;;40.78;21.95;;;4.70;96.10;;;;;;5084470;28;20097;-56
2022/03/21 00:05:17;;;;;;;43.10;21.85;;;4.70;96.10;;;;;;5084272;28;20040;-56
2022/03/21 00:07:44;;;;;;;42.72;23.35;;;4.70;96.10;;;;;;5066094;28;20098;-55
2022/03/21 00:10:11;;;;;;;40.95;21.35;;;4.70;96.20;;;;;;5084150;28;20063;-51
2022/03/21 00:12:39;;;;;;;42.65;23.67;;;4.80;96.40;;;;;;5084790;28;20487;-57
2022/03/21 00:15:09;;;;;;;39.83;21.67;;;4.60;96.40;;;;;;5084383;28;20052;-55
2022/03/21 00:17:37;;;;;;;37.42;21.15;;;4.60;96.60;;;;;;5085638;28;20454;-57
2022/03/21 00:20:04;;;;;;;39.50;20.38;;;4.50;96.60;;;;;;5085659;28;20427;-63
2022/03/21 00:22:33;;;;;;;38.58;20.90;;;4.50;96.60;;;;;;5085283;28;20220;-55
2022/03/21 00:25:00;;;;;;;47.38;22.13;;;4.40;96.90;;;;;;5085798;28;20624;-55
2022/03/21 00:27:27;;;;;;;37.85;21.60;;;4.40;96.90;;;;;;5085722;28;20559;-56
2022/03/21 00:29:53;;;;;;;34.85;20.23;;;4.30;96.90;;;;;;5086008;28;20403;-55
2022/03/21 00:32:20;;;;;;;34.22;20.92;;;4.30;97.00;;;;;;5089075;28;20475;-57
2022/03/21 00:34:47;;;;;;;34.40;19.25;;;4.30;97.00;;;;;;5089937;28;20079;-57
2022/03/21 00:37:14;;;;;;;49.13;23.00;;;4.30;97.10;;;;;;5089193;28;20048;-55
2022/03/21 00:39:41;;;;;;;39.83;23.27;;;4.30;97.20;;;;;;5071770;28;20040;-55
2022/03/21 00:42:10;;;;;;;39.13;21.42;;;4.20;97.30;;;;;;5071468;28;20109;-54
2022/03/21 00:44:37;;;;;;;45.53;21.83;;;4.00;97.60;;;;;;5090070;28;20482;-56
2022/03/21 00:47:04;;;;;;;43.60;22.52;;;4.00;97.60;;;;;;5072199;28;20129;-55
2022/03/21 00:49:31;;;;;;;40.90;20.65;;;3.90;97.80;;;;;;5090825;28;20123;-53
2022/03/21 00:51:58;;;;;;;37.00;21.30;;;3.90;97.90;;;;;;5072417;28;20048;-54
2022/03/21 00:54:25;;;;;;;46.90;22.50;;;3.90;98.00;;;;;;5091259;28;20248;-56
2022/03/21 00:56:52;;;;;;;35.60;20.45;;;4.00;98.00;;;;;;5090250;28;20043;-57
2022/03/21 00:59:19;;;;;;;41.83;21.05;;;3.90;98.00;;;;;;5090115;28;20048;-56
2022/03/21 01:01:46;;;;;;;34.83;20.25;;;4.00;98.00;;;;;;5088421;28;20172;-58
2022/03/21 01:04:13;;;;;;;39.00;21.77;;;3.90;97.90;;;;;;5089452;28;20048;-56
2022/03/21 01:06:40;;;;;;;46.97;23.13;;;3.80;98.10;;;;;;5088879;28;20172;-57
2022/03/21 01:09:08;;;;;;;43.35;21.00;;;3.60;98.30;;;;;;5089384;28;20503;-58
2022/03/21 01:11:35;;;;;;;43.08;21.70;;;3.60;98.50;;;;;;5088759;28;20090;-57
2022/03/21 01:14:02;;;;;;;41.15;21.13;;;3.50;98.60;;;;;;5089369;28;20044;-57
2022/03/21 01:16:29;;;;;;;37.90;21.85;;;3.50;98.70;;;;;;5089616;28;20040;-57
2022/03/21 01:18:56;;;;;;;40.78;20.80;;;3.60;98.60;;;;;;5088377;28;20151;-59
2022/03/21 01:21:23;;;;;;;38.95;20.85;;;3.60;98.60;;;;;;5090360;28;20048;-56
2022/03/21 01:23:49;;;;;;;49.25;22.63;;;3.60;98.60;;;;;;5089674;28;20097;-58
2022/03/21 01:26:16;;;;;;;38.88;22.60;;;3.90;98.70;;;;;;5089284;28;20080;-57
2022/03/21 01:28:43;;;;;;;44.40;21.13;;;3.50;98.70;;;;;;5089171;28;20185;-56
2022/03/21 01:31:10;;;;;;;41.78;21.98;;;3.50;98.80;;;;;;5089201;28;20083;-57
2022/03/21 01:33:38;;;;;;;38.78;20.30;;;3.50;98.70;;;;;;5088236;28;20048;-58
2022/03/21 01:36:09;;;;;;;43.40;20.85;;;3.50;98.80;;;;;;5088916;28;20362;-57
2022/03/21 01:38:35;;;;;;;41.13;20.40;;;3.50;98.70;;;;;;4733512;28;10000325;-54
2022/03/21 01:41:02;;;;;;;34.05;19.95;;;3.50;98.80;;;;;;5085728;28;20102;-52
2022/03/21 01:43:29;;;;;;;36.50;20.02;;;3.40;98.60;;;;;;5087198;28;20067;-55
2022/03/21 01:45:56;;;;;;;40.58;20.65;;;3.40;98.60;;;;;;5087927;28;20074;-57
2022/03/21 01:48:23;;;;;;;40.85;22.77;;;3.10;98.70;;;;;;5088110;28;20055;-55
2022/03/21 01:50:50;;;;;;;43.92;23.73;;;3.30;98.90;;;;;;5088672;28;20075;-56
2022/03/21 01:56:02;;;;;;;46.28;21.92;;;3.10;99.10;;;;;;5086661;28;20048;-57
2022/03/21 01:58:30;;;;;;;46.97;22.40;;;3.00;99.20;;;;;;5070330;28;20104;-56
2022/03/21 02:00:56;;;;;;;39.08;23.60;;;3.00;99.30;;;;;;5082863;28;20052;-58
2022/03/21 02:03:24;;;;;;;41.25;20.83;;;3.00;99.40;;;;;;5088068;28;20500;-57
2022/03/21 02:05:51;;;;;;;39.63;21.70;;;3.10;99.50;;;;;;5088630;28;20063;-56
2022/03/21 02:08:18;;;;;;;39.65;20.73;;;3.10;99.50;;;;;;5088470;28;20040;-57
2022/03/21 02:10:46;;;;;;;42.60;22.58;;;3.10;99.50;;;;;;5053875;28;20085;-57
2022/03/21 02:13:12;;;;;;;39.83;22.20;;;3.10;99.40;;;;;;5087965;28;20047;-57
2022/03/21 02:15:39;;;;;;;46.45;24.02;;;3.10;99.40;;;;;;5088088;28;20105;-54
2022/03/21 02:18:06;;;;;;;43.30;21.85;;;3.10;99.40;;;;;;5088245;28;20101;-58
2022/03/21 02:20:35;;;;;;;46.22;22.52;;;3.00;99.30;;;;;;5086891;28;20102;-55
2022/03/21 02:23:20;;;;;;;38.20;21.38;;;3.00;99.80;;;;;;5070486;28;20076;-57
2022/03/21 02:25:47;;;;;;;39.30;21.70;;;2.90;99.90;;;;;;5086841;28;20052;-58
2022/03/21 02:28:17;;;;;;;45.75;23.00;;;2.80;99.80;;;;;;5070121;28;20048;-55
2022/03/21 02:30:48;;;;;;;42.30;22.92;;;2.70;99.90;;;;;;5069299;28;20084;-56
2022/03/21 02:33:16;;;;;;;46.72;23.63;;;2.70;99.90;;;;;;5069861;28;20048;-57
2022/03/21 02:35:47;;;;;;;40.97;22.60;;;2.70;99.90;;;;;;5087617;28;20106;-56
2022/03/21 02:38:15;;;;;;;41.50;21.85;;;2.70;99.90;;;;;;5087259;28;20511;-57
2022/03/21 02:40:42;;;;;;;40.05;21.85;;;2.70;99.90;;;;;;5068985;28;20449;-57
2022/03/21 02:43:09;;;;;;;42.83;22.38;;;2.70;99.90;;;;;;5086680;28;20543;-54
2022/03/21 02:45:36;;;;;;;41.92;21.63;;;2.70;99.90;;;;;;5068963;28;20044;-56
2022/03/21 02:48:03;;;;;;;39.65;23.52;;;2.70;99.90;;;;;;5087416;28;20166;-57
2022/03/21 02:50:34;;;;;;;43.47;21.38;;;2.70;99.90;;;;;;5087015;28;20093;-55
2022/03/21 02:53:01;;;;;;;43.80;22.10;;;2.60;99.90;;;;;;5087702;28;20075;-57
2022/03/21 02:55:28;;;;;;;43.38;22.42;;;2.60;99.90;;;;;;5052395;28;20040;-56
2022/03/21 02:57:55;;;;;;;46.67;22.13;;;2.60;99.90;;;;;;5087992;28;20044;-56
2022/03/21 03:00:22;;;;;;;42.60;23.02;;;2.60;99.90;;;;;;5087048;28;20503;-59
2022/03/21 03:02:49;;;;;;;50.28;23.70;;;2.60;99.90;;;;;;5086225;28;20048;-57
2022/03/21 03:05:16;;;;;;;43.10;23.13;;;2.60;99.90;;;;;;5086852;28;20036;-56
2022/03/21 03:07:42;;;;;;;41.70;22.00;;;2.60;99.90;;;;;;5083634;28;20051;-56
2022/03/21 03:10:09;;;;;;;48.40;23.20;;;2.50;99.90;;;;;;5086443;28;20066;-52
2022/03/21 03:12:36;;;;;;;41.83;21.38;;;2.50;99.90;;;;;;5087000;28;20110;-56
2022/03/21 03:15:03;;;;;;;39.72;22.42;;;2.50;99.90;;;;;;5087364;28;20427;-56
2022/03/21 03:17:30;;;;;;;44.58;22.30;;;2.50;99.90;;;;;;5069113;28;20109;-55
2022/03/21 03:19:57;;;;;;;38.53;19.98;;;2.50;99.90;;;;;;5087002;28;20044;-58
2022/03/21 03:22:24;;;;;;;38.85;21.58;;;2.50;99.90;;;;;;5086448;28;20109;-56
2022/03/21 03:24:51;;;;;;;43.05;21.83;;;2.50;99.90;;;;;;5087483;28;20079;-57
2022/03/21 03:27:18;;;;;;;42.70;22.23;;;2.40;99.90;;;;;;5069211;28;20109;-55
2022/03/21 03:29:45;;;;;;;47.55;22.35;;;2.30;99.90;;;;;;5087062;28;20117;-57
2022/03/21 03:32:11;;;;;;;40.58;23.77;;;2.30;99.90;;;;;;5086923;28;20548;-57
2022/03/21 03:34:38;;;;;;;39.45;21.55;;;2.20;99.90;;;;;;5086511;28;20097;-56
2022/03/21 03:37:05;;;;;;;40.78;22.50;;;2.20;99.90;;;;;;5068569;28;20044;-56
2022/03/21 03:39:32;;;;;;;41.17;23.02;;;2.30;99.90;;;;;;5083885;28;20076;-57
2022/03/21 03:41:59;;;;;;;43.47;21.75;;;2.20;99.90;;;;;;5066796;28;20560;-57
2022/03/21 03:44:26;;;;;;;40.50;22.83;;;2.20;99.90;;;;;;5067219;28;20048;-56
2022/03/21 03:46:53;;;;;;;40.40;23.20;;;2.20;99.90;;;;;;5086343;28;20048;-56
2022/03/21 03:49:21;;;;;;;44.47;23.30;;;2.10;99.90;;;;;;5086085;28;20055;-56
2022/03/21 03:51:47;;;;;;;42.50;22.00;;;2.10;99.90;;;;;;5086872;28;20138;-57
2022/03/21 03:54:14;;;;;;;40.75;21.58;;;2.10;99.90;;;;;;5086934;28;20048;-57
2022/03/21 03:56:41;;;;;;;46.38;23.17;;;2.10;99.90;;;;;;5069167;28;20101;-57
2022/03/21 03:59:08;;;;;;;41.13;21.13;;;2.00;99.90;;;;;;5086695;28;20078;-58
2022/03/21 04:01:35;;;;;;;42.05;22.13;;;2.00;99.90;;;;;;5078668;28;20598;-57
2022/03/21 04:04:01;;;;;;;41.60;23.48;;;2.00;99.90;;;;;;5075116;28;20085;-56
2022/03/21 04:06:28;;;;;;;47.58;23.40;;;2.00;99.90;;;;;;5081004;28;20052;-57
2022/03/21 04:08:55;;;;;;;42.65;22.60;;;2.00;99.90;;;;;;5090945;28;20043;-58
2022/03/21 04:11:22;;;;;;;45.65;23.15;;;2.10;99.90;;;;;;5073173;28;20093;-57
2022/03/21 04:13:49;;;;;;;43.38;24.23;;;2.00;99.90;;;;;;5090644;28;20044;-56
2022/03/21 04:16:16;;;;;;;40.40;23.00;;;2.10;99.90;;;;;;5091108;28;20052;-57
2022/03/21 04:18:43;;;;;;;41.35;22.98;;;2.10;99.90;;;;;;5090370;28;20155;-57
2022/03/21 04:21:26;;;;;;;42.65;22.33;;;2.10;99.90;;;;;;5091094;28;20048;-57
2022/03/21 04:23:53;;;;;;;46.88;22.58;;;2.10;99.90;;;;;;5090180;28;20070;-54
2022/03/21 04:26:20;;;;;;;49.42;23.25;;;2.10;99.90;;;;;;5091081;28;20448;-55
2022/03/21 04:28:49;;;;;;;42.75;23.63;;;2.10;99.90;;;;;;5090259;28;20135;-54
2022/03/21 04:31:15;;;;;;;36.58;21.23;;;2.00;99.90;;;;;;5090451;28;20056;-55
2022/03/21 04:33:42;;;;;;;40.65;22.67;;;2.00;99.90;;;;;;5089866;28;20095;-58
2022/03/21 04:36:10;;;;;;;46.97;25.60;;;2.00;99.90;;;;;;5090701;28;20044;-57
2022/03/21 04:38:36;;;;;;;37.35;21.02;;;2.00;99.90;;;;;;5090014;28;20072;-56
2022/03/21 04:41:03;;;;;;;47.45;24.60;;;2.00;99.90;;;;;;5089483;28;20048;-56
2022/03/21 04:43:30;;;;;;;38.38;22.60;;;2.00;99.90;;;;;;5089615;28;20059;-55
2022/03/21 04:45:57;;;;;;;42.17;21.73;;;2.10;99.90;;;;;;5089871;28;20109;-57
2022/03/21 04:48:24;;;;;;;39.00;22.55;;;2.10;99.90;;;;;;5089782;28;20131;-57
2022/03/21 04:50:51;;;;;;;46.47;22.98;;;1.90;99.90;;;;;;5090489;28;20096;-55
2022/03/21 04:53:18;;;;;;;45.45;25.08;;;1.90;99.90;;;;;;5072178;28;20797;-55
2022/03/21 04:55:44;;;;;;;44.33;22.92;;;1.90;99.90;;;;;;5089578;28;20515;-61
2022/03/21 04:58:12;;;;;;;38.03;22.20;;;2.10;99.90;;;;;;5089782;28;20066;-56
2022/03/21 05:00:39;;;;;;;45.38;23.02;;;1.90;99.90;;;;;;5089767;28;20043;-57
2022/03/21 05:03:07;;;;;;;45.42;25.42;;;1.90;99.90;;;;;;5090306;28;20051;-58
2022/03/21 05:05:42;;;;;;;40.05;22.05;;;1.90;99.90;;;;;;5086957;28;20077;-57
2022/03/21 05:08:09;;;;;;;44.35;23.02;;;1.80;99.90;;;;;;5089904;28;20048;-57
2022/03/21 05:10:36;;;;;;;42.95;23.67;;;1.80;99.90;;;;;;5089133;28;20047;-57
2022/03/21 05:13:03;;;;;;;44.58;24.67;;;1.80;99.90;;;;;;5089823;28;20044;-56
2022/03/21 05:15:31;;;;;;;41.92;21.50;;;1.70;99.90;;;;;;5089441;28;20042;-57
2022/03/21 05:17:58;;;;;;;47.13;23.80;;;1.80;99.90;;;;;;5088516;28;20055;-57
2022/03/21 05:20:27;;;;;;;43.63;23.77;;;1.70;99.90;;;;;;5089227;28;20043;-59
2022/03/21 05:31:10;;;;;;;56.05;26.05;;;1.60;99.90;;;;;;5083000;28;20079;-56
2022/03/21 05:36:26;;;;;;;53.13;28.20;;;1.60;99.90;;;;;;5083619;28;20483;-58
2022/03/21 05:38:54;;;;;;;55.65;28.17;;;1.60;99.90;;;;;;5088568;28;20158;-55
2022/03/21 05:41:21;;;;;;;55.83;30.88;;;1.50;99.90;;;;;;5070509;28;20505;-59
2022/03/21 05:43:49;;;;;;;54.80;29.83;;;1.50;99.90;;;;;;5088591;28;20101;-56
2022/03/21 05:46:15;;;;;;;56.40;28.83;;;1.60;99.90;;;;;;5088296;28;20482;-57
2022/03/21 05:48:53;;;;;;;54.90;30.08;;;1.60;99.90;;;;;;5088836;28;20079;-53
2022/03/21 05:51:27;;;;;;;53.53;29.90;;;1.70;99.90;;;;;;5088926;28;20562;-58
2022/03/21 05:53:58;;;;;;;60.67;29.80;;;1.70;99.90;;;;;;5089330;28;20109;-60
2022/03/21 05:56:25;;;;;;;59.55;31.48;;;1.70;99.90;;;;;;5088151;28;20399;-57
2022/03/21 05:58:55;;;;;;;64.28;29.85;;;1.80;99.90;;;;;;5084462;28;20048;-57
2022/03/21 06:01:22;;;;;;;59.97;30.70;;;1.80;99.90;;;;;;5088545;28;20524;-57
2022/03/21 06:03:54;;;;;;;59.00;32.25;;;1.80;99.90;;;;;;5088596;28;20116;-55
2022/03/21 06:06:21;;;;;;;60.85;32.13;;;1.80;99.90;;;;;;5070735;28;20036;-55
2022/03/21 06:08:49;;;;;;;58.50;32.45;;;1.80;99.90;;;;;;5088579;28;20090;-57
2022/03/21 06:11:16;;;;;;;67.95;33.63;;;1.90;99.90;;;;;;5088896;28;20097;-57
2022/03/21 06:13:43;;;;;;;64.80;33.25;;;1.80;99.90;;;;;;5088356;28;20092;-58
2022/03/21 06:16:11;;;;;;;61.90;33.60;;;1.90;99.90;;;;;;5088517;28;20051;-55
2022/03/21 06:18:38;;;;;;;60.13;32.50;;;1.90;99.90;;;;;;5088263;28;20039;-56
2022/03/21 06:21:06;;;;;;;60.22;33.35;;;2.00;99.90;;;;;;5088839;28;20044;-55
2022/03/21 06:23:32;;;;;;;63.95;29.65;;;1.90;99.90;;;;;;5069564;28;20642;-53
2022/03/21 06:25:59;;;;;;;62.15;32.05;;;2.00;99.90;;;;;;5088835;28;20048;-54
2022/03/21 06:28:27;;;;;;;58.03;32.47;;;2.00;99.90;;;;;;5088317;28;20055;-56
2022/03/21 06:30:54;;;;;;;61.38;30.70;;;2.00;99.90;;;;;;5063837;28;20055;-55
2022/03/21 06:33:23;;;;;;;63.50;34.58;;;2.00;99.90;;;;;;5069511;28;20105;-59
2022/03/21 06:35:49;;;;;;;64.22;32.65;;;2.10;99.90;;;;;;5088512;28;20079;-57
2022/03/21 06:38:17;;;;;;;61.50;33.30;;;2.10;99.90;;;;;;5087725;28;20047;-56
2022/03/21 06:40:43;;;;;;;79.00;35.15;;;2.20;99.90;;;;;;5086813;28;20112;-57
2022/03/21 06:43:11;;;;;;;77.95;37.85;;;2.10;99.90;;;;;;5068218;28;20048;-55
2022/03/21 06:45:38;;;;;;;72.75;33.95;;;2.20;99.90;;;;;;5086459;28;20075;-60
2022/03/21 06:48:05;;;;;;;72.22;32.97;;;2.30;99.90;;;;;;5079173;28;20044;-57
2022/03/21 06:50:32;;;;;;;66.60;35.10;;;2.30;99.90;;;;;;5087600;28;20486;-55
2022/03/21 06:52:59;;;;;;;65.03;34.25;;;2.40;99.90;;;;;;5086846;28;20052;-58
2022/03/21 06:55:26;;;;;;;61.65;33.22;;;2.40;99.90;;;;;;5087763;28;20323;-56
2022/03/21 06:57:53;;;;;;;66.88;34.85;;;2.40;99.90;;;;;;5069430;28;20102;-55
2022/03/21 07:00:19;;;;;;;69.78;35.65;;;2.50;99.90;;;;;;5088468;28;20082;-57
2022/03/21 07:02:46;;;;;;;65.25;35.95;;;2.50;99.90;;;;;;5070000;28;20063;-55
2022/03/21 07:05:13;;;;;;;64.63;37.25;;;2.60;99.90;;;;;;5087376;28;20117;-52
2022/03/21 07:07:40;;;;;;;68.53;36.47;;;2.60;99.90;;;;;;5087090;28;20056;-57
2022/03/21 07:10:07;;;;;;;70.45;36.40;;;2.70;99.90;;;;;;5068769;28;20075;-57
2022/03/21 07:12:34;;;;;;;71.60;37.10;;;2.80;99.90;;;;;;5069042;28;20059;-55
2022/03/21 07:15:02;;;;;;;77.38;39.40;;;2.90;99.90;;;;;;5086561;28;20105;-58
2022/03/21 07:17:29;;;;;;;69.57;37.42;;;3.10;99.90;;;;;;5069323;28;20044;-53
2022/03/21 07:19:55;;;;;;;74.93;39.10;;;3.20;99.90;;;;;;5085833;28;20044;-57
2022/03/21 07:22:22;;;;;;;71.50;39.03;;;3.30;99.90;;;;;;5086562;28;20048;-57
2022/03/21 07:24:49;;;;;;;78.30;39.90;;;3.50;99.90;;;;;;5086995;28;20424;-58
2022/03/21 07:27:16;;;;;;;76.25;39.63;;;3.60;99.90;;;;;;5086528;28;20052;-57
2022/03/21 07:29:43;;;;;;;81.25;40.15;;;3.60;99.90;;;;;;5086421;28;20048;-55
2022/03/21 07:32:10;;;;;;;69.45;38.65;;;3.80;99.90;;;;;;5068668;28;20509;-56
2022/03/21 07:34:37;;;;;;;77.85;38.13;;;3.80;99.90;;;;;;5085609;28;20714;-57
2022/03/21 07:37:04;;;;;;;74.30;41.95;;;3.90;99.90;;;;;;5085853;28;20084;-56
2022/03/21 07:39:34;;;;;;;79.40;40.65;;;4.00;99.90;;;;;;5084675;28;20087;-55
2022/03/21 07:42:02;;;;;;;77.72;39.40;;;4.10;99.90;;;;;;5066313;28;20079;-56
2022/03/21 07:47:17;;;;;;;79.63;39.17;;;4.30;99.90;;;;;;5083032;28;20519;-58
2022/03/21 07:49:46;;;;;;;76.00;37.83;;;4.40;99.90;;;;;;5085818;28;20510;-55
2022/03/21 07:52:13;;;;;;;68.80;37.53;;;4.50;99.90;;;;;;5085541;28;20055;-57
2022/03/21 07:54:40;;;;;;;68.70;38.30;;;4.60;99.90;;;;;;5085158;28;20135;-56
2022/03/21 07:57:07;;;;;;;80.10;39.92;;;4.70;99.90;;;;;;5085831;28;20491;-56
2022/03/21 07:59:34;;;;;;;75.80;40.65;;;4.80;99.90;;;;;;5085645;28;20713;-57
2022/03/21 08:02:03;;;;;;;69.32;38.60;;;5.00;99.90;;;;;;5085551;28;20044;-56
2022/03/21 08:04:31;;;;;;;71.82;37.30;;;5.10;99.90;;;;;;5078745;28;20048;-58
2022/03/21 08:06:59;;;;;;;66.72;36.47;;;5.30;99.90;;;;;;5065436;28;20562;-57
2022/03/21 08:09:29;;;;;;;70.63;38.38;;;5.30;99.90;;;;;;5083462;28;20127;-57
2022/03/21 08:12:00;;;;;;;65.10;38.13;;;5.40;99.90;;;;;;5082932;28;20076;-57
2022/03/21 08:14:27;;;;;;;77.00;41.38;;;5.60;99.90;;;;;;5066136;28;20135;-57
2022/03/21 08:16:54;;;;;;;73.82;41.28;;;5.70;99.90;;;;;;5084378;28;20048;-56
2022/03/21 08:19:24;;;;;;;62.85;35.85;;;5.80;99.90;;;;;;5084409;28;20044;-58
2022/03/21 08:21:53;;;;;;;62.47;36.67;;;6.00;99.90;;;;;;5084934;28;20040;-56
2022/03/21 08:24:21;;;;;;;60.25;36.20;;;6.00;99.90;;;;;;5067999;28;20576;-59
2022/03/21 08:26:50;;;;;;;69.55;37.17;;;6.20;99.90;;;;;;5085504;28;20086;-57
2022/03/21 08:29:17;;;;;;;68.25;36.13;;;6.30;99.90;;;;;;5085894;28;20052;-55
2022/03/21 08:31:44;;;;;;;64.15;37.85;;;6.40;99.90;;;;;;5083383;28;20117;-57
2022/03/21 08:34:11;;;;;;;68.13;37.47;;;6.50;99.90;;;;;;5084844;28;20490;-57
2022/03/21 08:36:38;;;;;;;72.55;37.20;;;6.60;99.90;;;;;;5085367;28;20044;-55
2022/03/21 08:39:04;;;;;;;71.15;38.17;;;6.70;99.90;;;;;;5084415;28;20570;-56
2022/03/21 08:41:31;;;;;;;66.00;36.40;;;6.80;99.90;;;;;;5067871;28;20101;-57
2022/03/21 08:43:58;;;;;;;66.30;37.53;;;6.90;99.90;;;;;;5085490;28;20123;-57
2022/03/21 08:46:26;;;;;;;64.03;37.50;;;7.00;99.90;;;;;;5085445;28;20125;-58
2022/03/21 08:51:58;;;;;;;62.15;34.25;;;7.10;99.90;;;;;;5067993;28;20056;-58
2022/03/21 08:54:26;;;;;;;73.90;38.55;;;7.20;99.90;;;;;;5089518;28;20139;-57
2022/03/21 08:56:56;;;;;;;62.78;36.20;;;7.30;99.90;;;;;;5064272;28;20044;-56
2022/03/21 08:59:23;;;;;;;62.10;35.97;;;7.40;99.90;;;;;;5082660;28;20044;-56
2022/03/21 09:01:50;;;;;;;53.65;33.85;;;7.50;99.90;;;;;;5076085;28;20532;-51
2022/03/21 09:04:17;;;;;;;59.55;36.63;;;7.60;99.90;;;;;;5089086;28;20052;-56
2022/03/21 09:06:44;;;;;;;60.22;34.60;;;7.70;99.90;;;;;;5089163;28;20047;-55
2022/03/21 09:09:12;;;;;;;57.22;32.97;;;7.80;99.90;;;;;;5088724;28;20121;-56
2022/03/21 09:11:38;;;;;;;57.67;33.70;;;7.90;99.90;;;;;;5089423;28;20040;-56
2022/03/21 09:14:08;;;;;;;57.90;35.10;;;8.10;99.90;;;;;;5088446;28;20051;-59
2022/03/21 09:16:36;;;;;;;61.28;33.50;;;8.10;99.90;;;;;;5089264;28;20136;-57
2022/03/21 09:19:03;;;;;;;52.55;30.00;;;8.40;99.90;;;;;;5086973;28;20182;-57
2022/03/21 09:21:30;;;;;;;55.15;32.22;;;8.70;99.90;;;;;;5071188;28;20105;-58
2022/03/21 09:23:57;;;;;;;51.10;31.15;;;9.10;99.90;;;;;;5091396;28;20667;-57
2022/03/21 09:26:25;;;;;;;53.67;30.90;;;9.50;99.90;;;;;;5088543;28;20059;-57
2022/03/21 09:28:59;;;;;;;49.85;29.77;;;9.70;99.60;;;;;;5088878;28;20047;-57
2022/03/21 09:31:27;;;;;;;48.70;27.00;;;10.00;99.20;;;;;;5088670;28;20651;-57
2022/03/21 09:34:11;;;;;;;40.75;25.63;;;10.40;98.80;;;;;;5088430;28;20056;-57
2022/03/21 09:36:38;;;;;;;41.58;25.83;;;10.70;98.40;;;;;;5088961;28;20036;-56
2022/03/21 09:39:05;;;;;;;45.95;24.38;;;11.00;97.90;;;;;;5088510;28;20545;-54
2022/03/21 09:41:32;;;;;;;36.05;20.05;;;11.20;97.20;;;;;;5054422;28;20501;-54
2022/03/21 09:44:03;;;;;;;32.47;20.13;;;11.40;96.50;;;;;;5088184;28;20097;-60
2022/03/21 09:46:30;;;;;;;43.33;19.92;;;11.50;95.80;;;;;;5083770;28;20101;-58
2022/03/21 09:48:58;;;;;;;35.17;19.52;;;11.50;95.60;;;;;;5087907;28;20048;-56
2022/03/21 09:51:26;;;;;;;34.60;17.83;;;11.40;95.70;;;;;;5070652;28;20636;-58
2022/03/21 09:53:57;;;;;;;34.75;19.20;;;11.30;95.10;;;;;;5088293;28;20050;-53
2022/03/21 09:56:24;;;;;;;29.05;17.52;;;11.30;95.20;;;;;;5085813;28;20044;-58
2022/03/21 09:58:58;;;;;;;33.25;19.90;;;11.30;95.10;;;;;;5088477;28;20052;-56
2022/03/21 10:01:29;;;;;;;30.52;18.20;;;11.20;94.70;;;;;;5089878;28;20040;-58
2022/03/21 10:03:57;;;;;;;38.03;19.30;;;11.20;94.40;;;;;;5073766;28;20503;-59
2022/03/21 10:06:37;;;;;;;30.92;17.17;;;11.20;94.70;;;;;;5087486;28;20044;-57
2022/03/21 10:09:14;;;;;;;28.02;17.38;;;11.20;94.20;;;;;;5090029;28;20109;-57
2022/03/21 10:11:57;;;;;;;26.50;16.30;;;11.20;94.20;;;;;;5087463;28;20063;-56
2022/03/21 10:14:33;;;;;;;30.83;16.10;;;11.20;92.70;;;;;;5087638;28;20044;-57
2022/03/21 10:17:07;;;;;;;29.27;16.55;;;11.20;92.70;;;;;;5084091;28;20059;-58
2022/03/21 10:19:41;;;;;;;;;;;11.20;93.40;;;;;;5087908;28;20044;-54
2022/03/21 10:22:22;;;;;;;31.50;14.93;;;11.30;90.40;;;;;;5088688;28;19926;-58
2022/03/21 10:24:50;;;;;;;28.80;14.85;;;11.30;93.70;;;;;;5069940;28;20361;-58
2022/03/21 10:27:27;;;;;;;38.35;15.98;;;11.40;93.50;;;;;;5088467;28;20051;-57
2022/03/21 10:29:59;;;;;;;27.95;14.77;;;11.50;92.50;;;;;;5087405;28;20092;-57
2022/03/21 10:32:33;;;;;;;27.55;14.77;;;11.50;93.20;;;;;;5083472;28;20075;-57
2022/03/21 10:35:01;;;;;;;;;;;11.60;92.80;;;;;;5087955;28;20073;-55
2022/03/21 10:37:40;;;;;;;30.67;14.55;;;11.60;89.70;;;;;;5088013;28;20408;-56
2022/03/21 10:40:25;;;;;;;28.92;15.23;;;11.60;91.20;;;;;;5080016;28;20126;-54
2022/03/21 10:42:59;;;;;;;27.05;14.48;;;11.70;92.10;;;;;;5086040;28;20040;-55
2022/03/21 10:45:42;;;;;;;25.05;13.57;;;11.80;91.10;;;;;;5087560;28;20556;-55
2022/03/21 10:48:15;;;;;;;26.13;14.18;;;11.80;88.40;;;;;;5086489;28;20055;-58
2022/03/21 10:51:08;;;;;;;24.75;13.88;;;11.90;91.90;;;;;;5069948;28;20052;-57
2022/03/21 10:53:39;;;;;;;27.20;13.82;;;11.90;89.10;;;;;;5071102;28;20048;-56
2022/03/21 10:56:10;;;;;;;28.95;15.18;;;12.00;91.50;;;;;;5087472;28;20048;-54
2022/03/21 10:58:43;;;;;;;25.45;12.82;;;12.00;90.90;;;;;;5092360;28;20052;-57
2022/03/21 11:01:24;;;;;;;28.23;14.52;;;12.10;91.40;;;;;;5086693;28;20044;-58
2022/03/21 11:03:56;;;;;;;25.45;14.52;;;12.10;89.70;;;;;;5067518;28;20052;-58
2022/03/21 11:06:27;;;;;;;24.52;14.95;;;12.10;91.60;;;;;;5068035;28;20060;-58
2022/03/21 11:08:58;;;;;;;26.80;14.13;;;12.20;91.60;;;;;;5084114;28;20425;-55
2022/03/21 11:11:26;;;;;;;22.65;13.23;;;12.30;91.70;;;;;;5085967;28;20071;-56
2022/03/21 11:13:56;;;;;;;28.90;15.50;;;12.40;91.70;;;;;;5085980;28;20245;-56
2022/03/21 11:16:24;;;;;;;25.95;15.60;;;12.50;90.90;;;;;;5070463;28;20071;-57
2022/03/21 11:18:51;;;;;;;27.60;14.85;;;12.60;91.50;;;;;;5086738;28;20051;-54
2022/03/21 11:21:19;;;;;;;29.80;15.18;;;12.60;91.50;;;;;;5069544;28;20279;-57
2022/03/21 11:23:46;;;;;;;24.73;15.05;;;12.60;91.10;;;;;;5087301;28;20066;-56
2022/03/21 11:26:32;;;;;;;32.17;15.15;;;12.70;91.60;;;;;;5087418;28;20499;-57
2022/03/21 11:29:17;;;;;;;27.25;15.40;;;12.70;91.00;;;;;;5087102;28;20511;-54
2022/03/21 11:32:10;;;;;;;27.15;16.25;;;12.70;91.70;;;;;;5062186;28;20469;-56
2022/03/21 11:35:19;;;;;;;30.13;15.68;;;12.70;90.60;;;;;;5087196;28;20052;-62
2022/03/21 11:37:50;;;;;;;30.48;16.17;;;12.80;90.70;;;;;;5041385;28;20051;-58
2022/03/21 11:40:31;;;;;;;29.92;17.13;;;12.80;91.40;;;;;;5067048;28;20069;-60
2022/03/21 11:43:21;;;;;;;29.85;16.58;;;12.80;90.00;;;;;;5083933;28;20055;-57
2022/03/21 11:45:57;;;;;;;28.55;16.40;;;12.90;89.90;;;;;;5086188;28;20051;-56
2022/03/21 11:48:24;;;;;;;26.58;16.45;;;13.10;91.40;;;;;;5086685;28;20485;-58
2022/03/21 11:50:55;;;;;;;26.77;16.05;;;13.10;91.50;;;;;;5089734;28;20043;-58
2022/03/21 11:53:29;;;;;;;27.10;15.65;;;13.20;91.60;;;;;;5086922;28;20036;-57
2022/03/21 11:55:56;;;;;;;34.10;15.75;;;13.20;90.10;;;;;;5086767;28;20056;-58
2022/03/21 11:58:42;;;;;;;24.77;15.00;;;13.30;91.00;;;;;;5080867;28;20039;-58
2022/03/21 12:01:14;;;;;;;31.88;15.45;;;13.30;90.10;;;;;;5086993;28;20494;-58
2022/03/21 12:03:43;;;;;;;35.63;16.52;;;13.40;90.50;;;;;;5068635;28;20119;-58
2022/03/21 12:06:20;;;;;;;31.25;16.58;;;13.40;90.90;;;;;;5069999;28;20048;-56
2022/03/21 12:08:59;;;;;;;31.10;16.90;;;13.40;88.20;;;;;;5080123;28;20048;-58
2022/03/21 12:11:38;;;;;;;27.73;15.70;;;13.50;89.00;;;;;;5078003;28;20063;-57
2022/03/21 12:14:31;;;;;;;25.70;16.00;;;13.40;88.50;;;;;;5086761;28;20048;-55
2022/03/21 12:17:01;;;;;;;26.87;15.90;;;13.40;87.50;;;;;;5080826;28;20036;-55
2022/03/21 12:19:48;;;;;;;36.80;17.45;;;13.40;90.20;;;;;;5087018;28;20048;-56
2022/03/21 12:22:28;;;;;;;35.65;16.63;;;13.50;87.90;;;;;;5081613;28;20044;-57
2022/03/21 12:25:13;;;;;;;28.95;16.83;;;13.70;88.90;;;;;;5068001;28;20491;-58
2022/03/21 12:27:44;;;;;;;30.65;16.92;;;13.70;90.20;;;;;;5089067;28;20050;-58
2022/03/21 12:30:23;;;;;;;27.70;16.13;;;13.80;90.30;;;;;;5090272;28;20082;-59
2022/03/21 12:32:51;;;;;;;27.95;17.15;;;13.90;89.90;;;;;;5090681;28;20135;-58
2022/03/21 12:35:42;;;;;;;29.05;14.98;;;13.90;90.30;;;;;;5090227;28;20576;-57
2022/03/21 12:38:09;;;;;;;28.70;15.55;;;13.90;86.90;;;;;;5090919;28;20036;-57
2022/03/21 12:40:52;;;;;;;24.25;15.43;;;13.90;90.10;;;;;;5091294;28;20076;-58
2022/03/21 12:43:25;;;;;;;28.80;15.10;;;13.90;87.80;;;;;;5090926;28;20150;-58
2022/03/21 12:46:06;;;;;;;29.23;15.88;;;13.90;88.90;;;;;;5090690;28;20048;-61
2022/03/21 12:48:47;;;;;;;29.08;14.48;;;14.00;88.40;;;;;;5090637;28;20179;-57
2022/03/21 12:51:33;;;;;;;29.17;14.73;;;13.90;88.20;;;;;;5089861;28;20491;-58
2022/03/21 12:54:20;;;;;;;29.38;15.40;;;14.00;88.90;;;;;;5085341;28;20067;-57
2022/03/21 12:56:47;;;;;;;29.88;15.10;;;14.00;90.00;;;;;;5088939;28;20097;-56
2022/03/21 12:59:14;;;;;;;29.48;16.40;;;14.10;89.80;;;;;;5089332;28;20054;-57
2022/03/21 13:01:42;;;;;;;26.00;15.40;;;14.20;89.80;;;;;;5070902;28;20099;-57
2022/03/21 13:12:28;;;;;;;33.65;14.02;;;14.20;88.60;;;;;;5088188;28;20104;-54
2022/03/21 13:15:03;;;;;;;24.17;13.27;;;14.30;88.70;;;;;;5101012;28;20047;-58